Time;durP1;ratioP1;P1;durP2;ratioP2;P2;SDS_P1;SDS_P2;PMS_P1;PMS_P2;Temp;Humidity;BMP_temperature;BMP_pressure;BME280_temperature;BME280_humidity;BME280_pressure;Samples;Min_cycle;Max_cycle;Signal;HPM_P1;HPM_P2
2022/11/05 00:09:57;;;;;;;84.10;29.30;;;;;;;10.57;84.41;97628.92;420842;1292;98837;-41
2022/11/05 00:20:01;;;;;;;31.50;18.20;;;;;;;10.58;84.35;97632.36;420817;1298;111971;-41
2022/11/05 00:30:06;;;;;;;23.70;11.70;;;;;;;10.52;84.35;97649.23;420727;1292;108295;-41
2022/11/05 00:40:12;;;;;;;11.30;7.50;;;;;;;10.43;84.17;97667.40;420658;1299;99223;-40
2022/11/05 00:50:16;;;;;;;11.00;8.00;;;;;;;10.31;84.01;97681.14;421017;1298;108477;-40
2022/11/05 01:10:26;;;;;;;7.20;6.00;;;;;;;10.04;83.89;97707.01;420845;1287;111598;-39
2022/11/05 01:20:29;;;;;;;7.00;5.30;;;;;;;9.89;83.89;97715.77;420799;1298;108441;-40
2022/11/05 01:30:33;;;;;;;6.60;5.50;;;;;;;9.76;83.77;97707.98;420541;1291;99227;-40
2022/11/05 01:40:41;;;;;;;6.00;5.20;;;;;;;9.61;83.70;97709.27;420654;1298;107998;-41
2022/11/05 01:50:46;;;;;;;13.40;5.10;;;;;;;9.51;83.76;97729.30;420537;1294;99401;-42
2022/11/05 02:00:49;;;;;;;7.90;6.70;;;;;;;9.43;83.92;97733.05;420586;1294;543183;-41
2022/11/05 02:10:53;;;;;;;7.50;6.70;;;;;;;9.37;83.96;97735.45;421688;1273;106669;-40
2022/11/05 02:20:58;;;;;;;8.70;7.50;;;;;;;9.33;83.95;97746.32;420780;1304;98856;-39
2022/11/05 02:31:07;;;;;;;11.60;9.90;;;;;;;9.25;83.97;97756.97;420991;1298;106940;-39
2022/11/05 02:41:12;;;;;;;12.00;9.40;;;;;;;9.14;84.08;97761.44;420924;1298;99263;-39
2022/11/05 02:51:15;;;;;;;8.90;8.00;;;;;;;9.00;84.23;97782.60;420713;1298;112517;-40
2022/11/05 03:01:19;;;;;;;9.20;8.30;;;;;;;9.03;84.35;97809.33;420812;1298;107902;-40
2022/11/05 03:11:25;;;;;;;10.20;9.10;;;;;;;9.10;84.45;97819.73;421294;1298;99224;-41
2022/11/05 03:21:29;;;;;;;10.80;9.70;;;;;;;9.16;84.55;97813.21;420904;1298;107515;-40
2022/11/05 03:31:35;;;;;;;10.00;9.00;;;;;;;9.20;84.52;97840.17;420731;1275;99377;-42
2022/11/05 03:41:43;;;;;;;10.80;8.80;;;;;;;9.18;84.37;97847.91;420848;1297;111148;-40
2022/11/05 03:51:55;;;;;;;11.50;8.90;;;;;;;9.20;84.39;97862.60;420818;1291;107902;-40
2022/11/05 04:01:59;;;;;;;11.80;9.10;;;;;;;9.20;84.31;97874.16;421152;1299;98098;-40
2022/11/05 04:32:59;;;;;;;10.10;9.10;;;;;;;9.22;84.59;97900.63;420741;1291;112254;-41
2022/11/05 04:43:04;;;;;;;13.00;11.20;;;;;;;9.24;84.48;97902.10;420527;1298;107779;-41
2022/11/05 04:53:07;;;;;;;14.90;11.10;;;;;;;9.18;84.66;97901.23;420837;1298;98540;-40
2022/11/05 05:03:12;;;;;;;13.40;10.80;;;;;;;9.23;84.84;97908.14;420806;1295;107505;-40
2022/11/05 05:13:16;;;;;;;18.00;14.20;;;;;;;9.25;84.97;97914.82;420765;1290;98008;-40
2022/11/05 05:23:20;;;;;;;19.90;13.90;;;;;;;9.20;85.03;97931.30;420652;1291;111520;-41
2022/11/05 05:33:23;;;;;;;24.90;16.90;;;;;;;9.25;85.14;97935.04;420852;1298;107946;-45
2022/11/05 05:43:28;;;;;;;22.80;15.90;;;;;;;9.31;85.17;97948.89;420770;1295;98860;-40
2022/11/05 05:53:32;;;;;;;20.40;13.30;;;;;;;9.26;85.47;97968.45;420921;1298;107695;-40
2022/11/05 06:03:36;;;;;;;17.90;11.60;;;;;;;9.21;85.60;97984.27;420572;1298;99947;-41
2022/11/05 06:13:39;;;;;;;14.90;9.70;;;;;;;9.25;85.90;97987.20;420610;1298;112011;-41
2022/11/05 06:23:44;;;;;;;11.40;8.40;;;;;;;9.23;85.91;98001.27;420753;1291;108194;-41
2022/11/05 06:33:48;;;;;;;9.50;7.00;;;;;;;9.15;86.10;98014.81;420936;1298;98060;-40
2022/11/05 06:43:52;;;;;;;10.20;6.80;;;;;;;9.13;86.06;98034.83;421024;1298;107967;-40
2022/11/05 06:53:55;;;;;;;8.60;6.00;;;;;;;9.14;86.24;98070.92;420883;1283;99227;-40
2022/11/05 07:03:58;;;;;;;9.10;5.70;;;;;;;9.09;86.25;98105.80;420764;1298;112446;-40
2022/11/05 07:14:02;;;;;;;9.80;6.90;;;;;;;9.09;86.52;98123.94;421019;1291;108165;-40
2022/11/05 07:24:07;;;;;;;20.60;13.10;;;;;;;9.16;86.46;98121.14;420811;1294;99126;-40
2022/11/05 07:34:10;;;;;;;14.80;11.10;;;;;;;9.18;86.57;98133.98;420739;1298;107865;-40
2022/11/05 07:44:16;;;;;;;12.40;9.80;;;;;;;9.27;86.66;98156.86;420638;1298;99227;-42
2022/11/05 07:54:19;;;;;;;13.80;10.50;;;;;;;9.33;86.61;98165.27;420982;1291;111405;-41
2022/11/05 08:04:23;;;;;;;12.40;8.70;;;;;;;9.36;86.61;98170.49;421251;1291;110021;-41
2022/11/05 08:14:26;;;;;;;44.10;26.30;;;;;;;9.38;86.58;98183.20;420645;1298;99262;-42
2022/11/05 08:24:29;;;;;;;22.40;15.30;;;;;;;9.41;86.65;98196.61;420979;1298;108832;-41
2022/11/05 08:34:33;;;;;;;10.50;8.40;;;;;;;9.44;86.64;98203.08;420627;1298;99262;-40
2022/11/05 08:44:37;;;;;;;9.50;7.30;;;;;;;9.47;86.78;98209.06;420896;1298;110826;-40
2022/11/05 08:54:41;;;;;;;11.40;7.90;;;;;;;9.50;86.78;98209.77;420796;1284;107471;-40
2022/11/05 09:04:45;;;;;;;9.00;6.40;;;;;;;9.48;86.86;98228.52;420941;1295;98961;-41
2022/11/05 09:14:49;;;;;;;5.70;4.80;;;;;;;9.48;86.91;98240.39;420564;1290;108240;-42
2022/11/05 09:24:53;;;;;;;5.30;4.50;;;;;;;9.48;86.86;98239.16;420333;1291;98837;-41
2022/11/05 09:34:59;;;;;;;7.20;4.80;;;;;;;9.53;87.08;98248.61;420657;1291;111675;-41
2022/11/05 09:45:06;;;;;;;18.50;9.70;;;;;;;9.56;86.98;98257.65;420904;1291;108474;-39
2022/11/05 09:55:18;;;;;;;8.10;6.70;;;;;;;9.50;87.12;98264.88;420827;1298;99092;-39
2022/11/05 10:05:22;;;;;;;6.40;5.30;;;;;;;9.44;87.43;98279.91;420991;1285;108831;-39
2022/11/05 10:15:29;;;;;;;12.60;10.90;;;;;;;9.39;87.48;98289.14;421095;1298;98616;-39
2022/11/05 10:25:46;;;;;;;7.90;6.30;;;;;;;9.38;87.64;98285.38;420798;1294;112633;-41
2022/11/05 10:35:51;;;;;;;8.60;7.40;;;;;;;9.42;87.62;98289.11;420454;1291;107174;-43
2022/11/05 10:45:54;;;;;;;13.50;8.10;;;;;;;9.38;87.52;98298.69;420218;1298;99224;-41
2022/11/05 10:55:57;;;;;;;10.90;7.30;;;;;;;9.38;87.70;98303.32;420720;1283;107976;-41
2022/11/05 11:06:06;;;;;;;16.10;11.90;;;;;;;9.41;87.68;98310.77;420932;1298;99257;-41
2022/11/05 11:16:17;;;;;;;13.60;10.00;;;;;;;9.48;87.63;98325.36;420793;1298;111368;-41
2022/11/05 11:26:23;;;;;;;12.60;8.90;;;;;;;9.46;87.66;98327.95;420744;1291;107503;-41
2022/11/05 11:46:47;;;;;;;8.90;7.20;;;;;;;9.49;87.69;98338.02;420874;1291;108770;-40
2022/11/05 11:56:51;;;;;;;9.10;6.80;;;;;;;9.50;87.60;98349.05;421094;1298;99164;-40
2022/11/05 12:06:57;;;;;;;11.10;8.80;;;;;;;9.48;87.71;98354.23;420790;1298;111038;-40
2022/11/05 12:17:22;;;;;;;14.30;11.00;;;;;;;9.48;87.60;98369.70;420798;1291;107770;-40
2022/11/05 12:27:42;;;;;;;11.40;9.30;;;;;;;9.41;87.57;98373.63;420670;1298;98586;-41
2022/11/05 12:37:46;;;;;;;7.60;6.10;;;;;;;9.33;87.83;98377.30;420513;1287;108465;-41
2022/11/05 12:47:52;;;;;;;7.40;6.00;;;;;;;9.33;87.83;98397.05;421883;1298;99367;-40
2022/11/05 12:58:08;;;;;;;9.90;7.10;;;;;;;9.33;87.74;98422.64;420858;1298;111296;-41
2022/11/05 13:08:15;;;;;;;13.20;7.30;;;;;;;9.22;87.67;98423.94;420639;1291;107269;-41
2022/11/05 13:18:20;;;;;;;19.30;8.90;;;;;;;9.16;87.61;98437.73;421336;1298;99224;-41
2022/11/05 13:28:27;;;;;;;8.50;6.80;;;;;;;9.19;87.54;98448.84;420991;1291;107748;-40
2022/11/05 13:49:29;;;;;;;10.20;6.20;;;;;;;9.17;87.23;98467.34;420971;1298;111570;-41
2022/11/05 13:59:54;;;;;;;11.70;5.10;;;;;;;9.13;87.05;98483.17;419876;1291;474675;-40
2022/11/05 14:10:00;;;;;;;10.40;6.60;;;;;;;9.14;86.90;98491.58;420669;1294;98860;-41
2022/11/05 14:30:43;;;;;;;21.80;11.50;;;;;;;9.11;86.76;98514.14;420635;1298;99223;-40
2022/11/05 14:40:46;;;;;;;16.00;9.00;;;;;;;9.11;86.61;98524.20;421036;1291;112841;-40
2022/11/05 14:50:51;;;;;;;13.20;7.40;;;;;;;9.08;86.53;98543.27;420622;1298;106964;-40
2022/11/05 15:00:57;;;;;;;16.10;9.40;;;;;;;9.06;86.45;98556.05;420635;1292;99362;-40
2022/11/05 15:11:04;;;;;;;15.10;9.10;;;;;;;9.06;86.28;98571.71;420667;1291;107317;-40
2022/11/05 15:21:10;;;;;;;16.50;9.60;;;;;;;9.06;86.18;98581.70;420885;1298;98833;-40
2022/11/05 15:31:23;;;;;;;20.50;11.30;;;;;;;9.07;86.15;98586.67;420654;1291;112504;-40
2022/11/05 16:12:24;;;;;;;35.50;16.80;;;;;;;8.98;85.99;98626.00;420570;1298;98180;-41
2022/11/05 16:22:45;;;;;;;19.90;12.90;;;;;;;8.96;86.01;98639.86;420766;1292;111357;-41
2022/11/05 16:32:50;;;;;;;32.50;18.00;;;;;;;8.90;86.03;98650.79;420567;1291;108207;-41
2022/11/05 16:42:54;;;;;;;40.20;21.20;;;;;;;8.87;86.16;98664.45;420807;1299;99269;-40
2022/11/05 16:52:58;;;;;;;34.00;18.20;;;;;;;8.86;86.18;98683.73;420546;1298;108750;-41
2022/11/05 17:03:02;;;;;;;29.50;20.60;;;;;;;8.87;86.10;98695.89;420132;1298;99291;-41
2022/11/05 17:13:06;;;;;;;29.20;17.30;;;;;;;8.89;86.11;98705.04;421011;1298;111523;-41
2022/11/05 17:33:16;;;;;;;43.10;26.40;;;;;;;8.82;86.24;98716.27;420959;1304;99295;-41
2022/11/05 17:43:20;;;;;;;41.40;22.20;;;;;;;8.81;86.11;98713.69;420716;1299;107306;-41
2022/11/05 17:53:24;;;;;;;29.40;17.60;;;;;;;8.74;86.24;98721.91;420516;1298;99268;-41
2022/11/05 18:03:27;;;;;;;31.90;21.00;;;;;;;8.72;86.18;98725.41;420844;1294;112044;-41
2022/11/05 18:13:31;;;;;;;28.90;16.70;;;;;;;8.67;86.20;98734.91;420769;1299;108790;-41
2022/11/05 18:23:35;;;;;;;30.80;17.90;;;;;;;8.63;86.20;98732.15;420768;1298;98879;-41
2022/11/05 18:33:38;;;;;;;63.40;31.80;;;;;;;8.62;86.27;98747.23;420710;1298;108537;-39
2022/11/05 18:43:42;;;;;;;54.40;26.90;;;;;;;8.58;86.20;98754.70;420446;1298;99282;-41
2022/11/05 18:53:45;;;;;;;44.50;23.10;;;;;;;8.54;86.31;98763.08;420662;1298;111892;-41
2022/11/05 19:13:53;;;;;;;42.50;24.50;;;;;;;8.47;86.26;98775.52;420877;1298;99336;-41
2022/11/05 19:24:00;;;;;;;57.80;33.20;;;;;;;8.38;86.17;98783.96;420648;1292;108484;-39
2022/11/05 19:34:04;;;;;;;41.70;23.90;;;;;;;8.34;86.37;98803.27;420749;1298;98864;-41
2022/11/05 19:44:08;;;;;;;46.10;26.90;;;;;;;8.27;86.17;98812.08;420438;1297;111502;-39
2022/11/05 19:54:12;;;;;;;49.90;26.60;;;;;;;8.23;86.10;98824.16;420734;1290;109030;-40
2022/11/05 20:04:16;;;;;;;40.40;25.80;;;;;;;8.18;86.15;98845.83;420751;1296;98847;-40
2022/11/05 20:14:19;;;;;;;37.00;21.30;;;;;;;8.14;85.98;98855.49;420650;1288;108876;-40
2022/11/05 20:24:23;;;;;;;54.70;25.80;;;;;;;8.07;86.08;98864.24;420721;1299;99223;-40
2022/11/05 20:34:29;;;;;;;86.60;41.30;;;;;;;8.04;86.14;98869.51;421010;1299;112232;-40
2022/11/05 20:44:32;;;;;;;71.70;34.40;;;;;;;8.04;86.18;98877.96;420570;1295;106680;-40
2022/11/05 21:14:44;;;;;;;61.50;31.10;;;;;;;7.75;86.06;98887.84;420858;1298;99252;-41
2022/11/05 21:24:48;;;;;;;61.20;30.60;;;;;;;7.56;85.94;98893.69;420777;1299;111441;-41
2022/11/05 21:34:52;;;;;;;43.00;22.90;;;;;;;7.47;85.97;98902.84;420630;1291;109433;-40
2022/11/05 21:44:55;;;;;;;38.20;20.10;;;;;;;7.41;86.08;98901.30;420734;1299;99351;-41
2022/11/05 22:05:37;;;;;;;32.70;18.90;;;;;;;7.31;86.03;98909.63;420723;1298;99233;-41
2022/11/05 22:15:41;;;;;;;36.20;16.80;;;;;;;7.30;86.21;98903.76;420744;1304;111034;-41
2022/11/05 22:25:45;;;;;;;45.50;25.60;;;;;;;7.22;86.10;98897.56;420825;1299;109478;-41
2022/11/05 22:35:49;;;;;;;46.90;23.60;;;;;;;7.03;86.05;98900.54;420640;1292;98864;-40
2022/11/05 22:45:53;;;;;;;47.70;23.00;;;;;;;6.84;85.99;98892.73;420699;1296;108454;-40
2022/11/05 22:55:57;;;;;;;52.70;27.50;;;;;;;6.73;86.02;98894.90;420797;1292;99246;-40
2022/11/05 23:06:03;;;;;;;52.60;24.20;;;;;;;6.75;86.03;98900.16;420569;1304;112770;-41
2022/11/05 23:57:37;;;;;;;27.80;11.90;;;;;;;6.71;86.22;98941.84;420658;1298;112761;-41
